sensor_id;sensor_type;location;lat;lon;timestamp;temperature;humidity
15617;DHT22;7908;51.688;7.130;2023-04-25T00:01:14;6.40;99.90
15617;DHT22;7908;51.688;7.130;2023-04-25T00:03:43;6.50;99.90
15617;DHT22;7908;51.688;7.130;2023-04-25T00:06:13;6.50;99.90
15617;DHT22;7908;51.688;7.130;2023-04-25T00:08:42;6.50;99.90
15617;DHT22;7908;51.688;7.130;2023-04-25T00:11:11;6.50;99.90
15617;DHT22;7908;51.688;7.130;2023-04-25T00:13:40;6.50;99.90
15617;DHT22;7908;51.688;7.130;2023-04-25T00:16:08;6.50;99.90
15617;DHT22;7908;51.688;7.130;2023-04-25T00:18:37;6.50;99.90
15617;DHT22;7908;51.688;7.130;2023-04-25T00:21:06;6.50;99.90
15617;DHT22;7908;51.688;7.130;2023-04-25T00:23:37;6.50;99.90
15617;DHT22;7908;51.688;7.130;2023-04-25T00:26:05;6.60;99.90
15617;DHT22;7908;51.688;7.130;2023-04-25T00:28:34;6.60;99.90
15617;DHT22;7908;51.688;7.130;2023-04-25T00:31:03;6.60;99.90
15617;DHT22;7908;51.688;7.130;2023-04-25T00:33:32;6.60;99.90
15617;DHT22;7908;51.688;7.130;2023-04-25T00:36:00;6.60;99.90
15617;DHT22;7908;51.688;7.130;2023-04-25T00:38:29;6.60;99.90
15617;DHT22;7908;51.688;7.130;2023-04-25T00:40:59;6.60;99.90
15617;DHT22;7908;51.688;7.130;2023-04-25T00:43:28;6.60;99.90
15617;DHT22;7908;51.688;7.130;2023-04-25T00:46:00;6.60;99.90
15617;DHT22;7908;51.688;7.130;2023-04-25T00:48:29;6.50;99.90
15617;DHT22;7908;51.688;7.130;2023-04-25T00:50:58;6.50;99.90
15617;DHT22;7908;51.688;7.130;2023-04-25T00:53:28;6.50;99.90
15617;DHT22;7908;51.688;7.130;2023-04-25T00:55:57;6.50;99.90
15617;DHT22;7908;51.688;7.130;2023-04-25T00:58:27;6.50;99.90
15617;DHT22;7908;51.688;7.130;2023-04-25T01:00:56;6.50;99.90
15617;DHT22;7908;51.688;7.130;2023-04-25T01:03:25;6.50;99.90
15617;DHT22;7908;51.688;7.130;2023-04-25T01:05:56;6.60;99.90
15617;DHT22;7908;51.688;7.130;2023-04-25T01:08:25;6.60;99.90
15617;DHT22;7908;51.688;7.130;2023-04-25T01:10:53;6.50;99.90
15617;DHT22;7908;51.688;7.130;2023-04-25T01:13:22;6.50;99.90
15617;DHT22;7908;51.688;7.130;2023-04-25T01:15:52;6.50;99.90
15617;DHT22;7908;51.688;7.130;2023-04-25T01:18:21;6.50;99.90
15617;DHT22;7908;51.688;7.130;2023-04-25T01:20:50;6.50;99.90
15617;DHT22;7908;51.688;7.130;2023-04-25T01:23:21;6.60;99.90
15617;DHT22;7908;51.688;7.130;2023-04-25T01:25:51;6.50;99.90
15617;DHT22;7908;51.688;7.130;2023-04-25T01:28:20;6.60;99.90
15617;DHT22;7908;51.688;7.130;2023-04-25T01:30:49;6.60;99.90
15617;DHT22;7908;51.688;7.130;2023-04-25T01:33:19;6.60;99.90
15617;DHT22;7908;51.688;7.130;2023-04-25T01:35:49;6.60;99.90
15617;DHT22;7908;51.688;7.130;2023-04-25T01:38:18;6.60;99.90
15617;DHT22;7908;51.688;7.130;2023-04-25T01:40:49;6.60;99.90
15617;DHT22;7908;51.688;7.130;2023-04-25T01:43:19;6.60;99.90
15617;DHT22;7908;51.688;7.130;2023-04-25T01:45:49;6.70;99.90
15617;DHT22;7908;51.688;7.130;2023-04-25T01:48:18;6.60;99.90
15617;DHT22;7908;51.688;7.130;2023-04-25T01:50:46;6.70;99.90
15617;DHT22;7908;51.688;7.130;2023-04-25T01:53:15;6.70;99.90
15617;DHT22;7908;51.688;7.130;2023-04-25T01:55:43;6.70;99.90
15617;DHT22;7908;51.688;7.130;2023-04-25T01:58:13;6.70;99.90
15617;DHT22;7908;51.688;7.130;2023-04-25T02:00:42;6.70;99.90
15617;DHT22;7908;51.688;7.130;2023-04-25T02:03:12;6.70;99.90
15617;DHT22;7908;51.688;7.130;2023-04-25T02:05:40;6.80;99.90
15617;DHT22;7908;51.688;7.130;2023-04-25T02:08:09;6.80;99.90
15617;DHT22;7908;51.688;7.130;2023-04-25T02:10:38;6.80;99.90
15617;DHT22;7908;51.688;7.130;2023-04-25T02:13:06;6.80;99.90
15617;DHT22;7908;51.688;7.130;2023-04-25T02:15:36;6.80;99.90
15617;DHT22;7908;51.688;7.130;2023-04-25T02:18:05;6.80;99.90
15617;DHT22;7908;51.688;7.130;2023-04-25T02:20:34;6.80;99.90
15617;DHT22;7908;51.688;7.130;2023-04-25T02:23:04;6.80;99.90
15617;DHT22;7908;51.688;7.130;2023-04-25T02:25:33;6.80;99.90
15617;DHT22;7908;51.688;7.130;2023-04-25T02:28:01;6.80;99.90
15617;DHT22;7908;51.688;7.130;2023-04-25T02:30:30;6.80;99.90
15617;DHT22;7908;51.688;7.130;2023-04-25T02:33:00;6.70;99.90
15617;DHT22;7908;51.688;7.130;2023-04-25T02:35:29;6.70;99.90
15617;DHT22;7908;51.688;7.130;2023-04-25T02:37:59;6.70;99.90
15617;DHT22;7908;51.688;7.130;2023-04-25T02:40:28;6.70;99.90
15617;DHT22;7908;51.688;7.130;2023-04-25T02:42:57;6.70;99.90
15617;DHT22;7908;51.688;7.130;2023-04-25T02:45:25;6.70;99.90
15617;DHT22;7908;51.688;7.130;2023-04-25T02:47:54;6.70;99.90
15617;DHT22;7908;51.688;7.130;2023-04-25T02:50:24;6.70;99.90
15617;DHT22;7908;51.688;7.130;2023-04-25T02:52:52;6.70;99.90
15617;DHT22;7908;51.688;7.130;2023-04-25T02:55:22;6.70;99.90
15617;DHT22;7908;51.688;7.130;2023-04-25T02:57:54;6.70;99.90
15617;DHT22;7908;51.688;7.130;2023-04-25T03:00:23;6.60;99.90
15617;DHT22;7908;51.688;7.130;2023-04-25T03:02:52;6.70;99.90
15617;DHT22;7908;51.688;7.130;2023-04-25T03:05:25;6.70;99.90
15617;DHT22;7908;51.688;7.130;2023-04-25T03:07:53;6.70;99.90
15617;DHT22;7908;51.688;7.130;2023-04-25T03:10:22;6.60;99.90
15617;DHT22;7908;51.688;7.130;2023-04-25T03:12:51;6.60;99.90
15617;DHT22;7908;51.688;7.130;2023-04-25T03:15:19;6.60;99.90
15617;DHT22;7908;51.688;7.130;2023-04-25T03:17:48;6.60;99.90
15617;DHT22;7908;51.688;7.130;2023-04-25T03:20:16;6.60;99.90
15617;DHT22;7908;51.688;7.130;2023-04-25T03:22:47;6.60;99.90
15617;DHT22;7908;51.688;7.130;2023-04-25T03:25:15;6.60;99.90
15617;DHT22;7908;51.688;7.130;2023-04-25T03:27:44;6.40;99.90
15617;DHT22;7908;51.688;7.130;2023-04-25T03:30:13;6.20;99.90
15617;DHT22;7908;51.688;7.130;2023-04-25T03:32:41;6.00;99.90
15617;DHT22;7908;51.688;7.130;2023-04-25T03:35:10;5.80;99.90
15617;DHT22;7908;51.688;7.130;2023-04-25T03:37:38;5.70;99.90
15617;DHT22;7908;51.688;7.130;2023-04-25T03:40:09;5.60;99.90
15617;DHT22;7908;51.688;7.130;2023-04-25T03:42:38;5.60;99.90
15617;DHT22;7908;51.688;7.130;2023-04-25T03:45:09;5.50;99.90
15617;DHT22;7908;51.688;7.130;2023-04-25T03:47:38;5.50;99.90
15617;DHT22;7908;51.688;7.130;2023-04-25T03:50:07;5.50;99.90
15617;DHT22;7908;51.688;7.130;2023-04-25T03:52:36;5.50;99.90
15617;DHT22;7908;51.688;7.130;2023-04-25T03:55:05;5.50;99.90
15617;DHT22;7908;51.688;7.130;2023-04-25T03:57:35;5.50;99.90
15617;DHT22;7908;51.688;7.130;2023-04-25T04:00:05;5.50;99.90
15617;DHT22;7908;51.688;7.130;2023-04-25T04:02:34;5.50;99.90
15617;DHT22;7908;51.688;7.130;2023-04-25T04:05:05;5.50;99.90
15617;DHT22;7908;51.688;7.130;2023-04-25T04:07:34;5.40;99.90
15617;DHT22;7908;51.688;7.130;2023-04-25T04:10:07;5.40;99.90
15617;DHT22;7908;51.688;7.130;2023-04-25T04:12:37;5.40;99.90
15617;DHT22;7908;51.688;7.130;2023-04-25T04:15:07;5.40;99.90
15617;DHT22;7908;51.688;7.130;2023-04-25T04:17:36;5.40;99.90
15617;DHT22;7908;51.688;7.130;2023-04-25T04:20:06;5.40;99.90
15617;DHT22;7908;51.688;7.130;2023-04-25T04:22:35;5.30;99.90
15617;DHT22;7908;51.688;7.130;2023-04-25T04:25:05;5.30;99.90
15617;DHT22;7908;51.688;7.130;2023-04-25T04:27:34;5.20;99.90
15617;DHT22;7908;51.688;7.130;2023-04-25T04:30:05;5.20;99.90
15617;DHT22;7908;51.688;7.130;2023-04-25T04:32:34;5.20;99.90
15617;DHT22;7908;51.688;7.130;2023-04-25T04:35:05;5.10;99.90
15617;DHT22;7908;51.688;7.130;2023-04-25T04:37:38;5.10;99.90
15617;DHT22;7908;51.688;7.130;2023-04-25T04:40:08;5.20;99.90
15617;DHT22;7908;51.688;7.130;2023-04-25T04:42:37;5.10;99.90
15617;DHT22;7908;51.688;7.130;2023-04-25T04:45:08;5.20;99.90
15617;DHT22;7908;51.688;7.130;2023-04-25T04:47:37;5.20;99.90
15617;DHT22;7908;51.688;7.130;2023-04-25T04:50:07;5.30;99.90
15617;DHT22;7908;51.688;7.130;2023-04-25T04:52:37;5.30;99.90
15617;DHT22;7908;51.688;7.130;2023-04-25T04:55:06;5.30;99.90
15617;DHT22;7908;51.688;7.130;2023-04-25T04:57:35;5.40;99.90
15617;DHT22;7908;51.688;7.130;2023-04-25T05:00:08;5.40;99.90
15617;DHT22;7908;51.688;7.130;2023-04-25T05:02:38;5.40;99.90
15617;DHT22;7908;51.688;7.130;2023-04-25T05:05:08;5.50;99.90
15617;DHT22;7908;51.688;7.130;2023-04-25T05:07:38;5.50;99.90
15617;DHT22;7908;51.688;7.130;2023-04-25T05:10:07;5.50;99.90
15617;DHT22;7908;51.688;7.130;2023-04-25T05:12:36;5.60;99.90
15617;DHT22;7908;51.688;7.130;2023-04-25T05:15:07;5.60;99.90
15617;DHT22;7908;51.688;7.130;2023-04-25T05:17:37;5.60;99.90
15617;DHT22;7908;51.688;7.130;2023-04-25T05:20:07;5.60;99.90
15617;DHT22;7908;51.688;7.130;2023-04-25T05:22:36;5.60;99.90
15617;DHT22;7908;51.688;7.130;2023-04-25T05:25:05;5.60;99.90
15617;DHT22;7908;51.688;7.130;2023-04-25T05:27:34;5.60;99.90
15617;DHT22;7908;51.688;7.130;2023-04-25T05:30:04;5.80;99.90
15617;DHT22;7908;51.688;7.130;2023-04-25T05:32:35;5.80;99.90
15617;DHT22;7908;51.688;7.130;2023-04-25T05:35:05;5.80;99.90
15617;DHT22;7908;51.688;7.130;2023-04-25T05:37:34;5.90;99.90
15617;DHT22;7908;51.688;7.130;2023-04-25T05:40:03;5.90;99.90
15617;DHT22;7908;51.688;7.130;2023-04-25T05:42:34;5.90;99.90
15617;DHT22;7908;51.688;7.130;2023-04-25T05:45:02;5.90;99.90
15617;DHT22;7908;51.688;7.130;2023-04-25T05:47:31;5.90;99.90
15617;DHT22;7908;51.688;7.130;2023-04-25T05:50:02;5.90;99.90
15617;DHT22;7908;51.688;7.130;2023-04-25T05:52:31;5.90;99.90
15617;DHT22;7908;51.688;7.130;2023-04-25T05:55:00;5.90;99.90
15617;DHT22;7908;51.688;7.130;2023-04-25T05:57:28;5.90;99.90
15617;DHT22;7908;51.688;7.130;2023-04-25T05:59:57;5.90;99.90
15617;DHT22;7908;51.688;7.130;2023-04-25T06:02:26;6.00;99.90
15617;DHT22;7908;51.688;7.130;2023-04-25T06:04:54;6.10;99.90
15617;DHT22;7908;51.688;7.130;2023-04-25T06:07:25;6.20;99.90
15617;DHT22;7908;51.688;7.130;2023-04-25T06:09:54;6.40;99.90
15617;DHT22;7908;51.688;7.130;2023-04-25T06:12:25;6.50;99.90
15617;DHT22;7908;51.688;7.130;2023-04-25T06:14:53;6.50;99.90
15617;DHT22;7908;51.688;7.130;2023-04-25T06:17:22;6.50;99.90
15617;DHT22;7908;51.688;7.130;2023-04-25T06:19:51;6.60;99.90
15617;DHT22;7908;51.688;7.130;2023-04-25T06:22:19;6.60;99.90
15617;DHT22;7908;51.688;7.130;2023-04-25T06:24:49;6.60;99.90
15617;DHT22;7908;51.688;7.130;2023-04-25T06:27:18;6.50;99.90
15617;DHT22;7908;51.688;7.130;2023-04-25T06:29:46;6.50;99.90
15617;DHT22;7908;51.688;7.130;2023-04-25T06:32:15;6.50;99.90
15617;DHT22;7908;51.688;7.130;2023-04-25T06:34:45;6.50;99.90
15617;DHT22;7908;51.688;7.130;2023-04-25T06:37:13;6.60;99.90
15617;DHT22;7908;51.688;7.130;2023-04-25T06:39:42;6.60;99.90
15617;DHT22;7908;51.688;7.130;2023-04-25T06:42:12;6.60;99.90
15617;DHT22;7908;51.688;7.130;2023-04-25T06:44:41;6.70;99.90
15617;DHT22;7908;51.688;7.130;2023-04-25T06:47:09;6.70;99.90
15617;DHT22;7908;51.688;7.130;2023-04-25T06:49:39;6.70;99.90
15617;DHT22;7908;51.688;7.130;2023-04-25T06:52:08;6.70;99.90
15617;DHT22;7908;51.688;7.130;2023-04-25T06:54:37;6.70;99.90
15617;DHT22;7908;51.688;7.130;2023-04-25T06:57:06;6.70;99.90
15617;DHT22;7908;51.688;7.130;2023-04-25T06:59:36;6.80;99.90
15617;DHT22;7908;51.688;7.130;2023-04-25T07:02:05;6.70;99.90
15617;DHT22;7908;51.688;7.130;2023-04-25T07:04:34;6.80;99.90
15617;DHT22;7908;51.688;7.130;2023-04-25T07:07:03;6.80;99.90
15617;DHT22;7908;51.688;7.130;2023-04-25T07:09:32;6.80;99.90
15617;DHT22;7908;51.688;7.130;2023-04-25T07:12:01;6.90;99.90
15617;DHT22;7908;51.688;7.130;2023-04-25T07:14:30;7.00;99.90
15617;DHT22;7908;51.688;7.130;2023-04-25T07:17:01;7.20;99.90
15617;DHT22;7908;51.688;7.130;2023-04-25T07:19:30;7.20;99.90
15617;DHT22;7908;51.688;7.130;2023-04-25T07:21:59;7.20;99.90
15617;DHT22;7908;51.688;7.130;2023-04-25T07:24:28;7.20;99.90
15617;DHT22;7908;51.688;7.130;2023-04-25T07:26:56;7.30;99.90
15617;DHT22;7908;51.688;7.130;2023-04-25T07:29:25;7.30;99.90
15617;DHT22;7908;51.688;7.130;2023-04-25T07:31:54;7.30;99.90
15617;DHT22;7908;51.688;7.130;2023-04-25T07:34:24;7.30;99.90
15617;DHT22;7908;51.688;7.130;2023-04-25T07:36:53;7.40;99.90
15617;DHT22;7908;51.688;7.130;2023-04-25T07:39:22;7.40;99.90
15617;DHT22;7908;51.688;7.130;2023-04-25T07:41:50;7.50;99.90
15617;DHT22;7908;51.688;7.130;2023-04-25T07:44:21;7.60;99.90
15617;DHT22;7908;51.688;7.130;2023-04-25T07:46:50;7.70;99.90
15617;DHT22;7908;51.688;7.130;2023-04-25T07:49:19;7.80;99.90
15617;DHT22;7908;51.688;7.130;2023-04-25T07:51:49;7.80;99.90
15617;DHT22;7908;51.688;7.130;2023-04-25T07:54:17;7.80;99.90
15617;DHT22;7908;51.688;7.130;2023-04-25T07:56:46;7.90;99.90
15617;DHT22;7908;51.688;7.130;2023-04-25T07:59:20;7.80;99.90
15617;DHT22;7908;51.688;7.130;2023-04-25T08:01:49;7.80;99.90
15617;DHT22;7908;51.688;7.130;2023-04-25T08:04:18;7.90;99.90
15617;DHT22;7908;51.688;7.130;2023-04-25T08:06:47;7.90;99.90
15617;DHT22;7908;51.688;7.130;2023-04-25T08:09:17;8.00;99.90
15617;DHT22;7908;51.688;7.130;2023-04-25T08:11:46;8.10;99.90
15617;DHT22;7908;51.688;7.130;2023-04-25T08:14:15;8.10;99.90
15617;DHT22;7908;51.688;7.130;2023-04-25T08:16:44;8.10;99.90
15617;DHT22;7908;51.688;7.130;2023-04-25T08:19:13;8.10;99.90
15617;DHT22;7908;51.688;7.130;2023-04-25T08:21:42;8.20;99.90
15617;DHT22;7908;51.688;7.130;2023-04-25T08:24:11;8.10;99.90
15617;DHT22;7908;51.688;7.130;2023-04-25T08:26:41;8.20;99.90
15617;DHT22;7908;51.688;7.130;2023-04-25T08:29:10;8.30;99.90
15617;DHT22;7908;51.688;7.130;2023-04-25T08:31:39;8.40;99.90
15617;DHT22;7908;51.688;7.130;2023-04-25T08:34:08;8.50;99.90
15617;DHT22;7908;51.688;7.130;2023-04-25T08:36:36;8.60;99.90
15617;DHT22;7908;51.688;7.130;2023-04-25T08:39:06;8.70;99.90
15617;DHT22;7908;51.688;7.130;2023-04-25T08:41:37;8.70;99.90
15617;DHT22;7908;51.688;7.130;2023-04-25T08:44:10;8.70;99.90
15617;DHT22;7908;51.688;7.130;2023-04-25T08:46:41;8.60;99.90
15617;DHT22;7908;51.688;7.130;2023-04-25T08:49:11;8.70;99.90
15617;DHT22;7908;51.688;7.130;2023-04-25T08:51:45;8.70;99.90
15617;DHT22;7908;51.688;7.130;2023-04-25T08:54:15;8.60;99.90
15617;DHT22;7908;51.688;7.130;2023-04-25T08:56:48;8.50;99.90
15617;DHT22;7908;51.688;7.130;2023-04-25T08:59:18;8.50;99.90
15617;DHT22;7908;51.688;7.130;2023-04-25T09:01:47;8.40;99.90
15617;DHT22;7908;51.688;7.130;2023-04-25T09:04:21;8.50;99.90
15617;DHT22;7908;51.688;7.130;2023-04-25T09:06:49;8.60;99.90
15617;DHT22;7908;51.688;7.130;2023-04-25T09:09:18;8.70;99.90
15617;DHT22;7908;51.688;7.130;2023-04-25T09:11:47;8.70;99.90
15617;DHT22;7908;51.688;7.130;2023-04-25T09:14:18;8.80;99.90
15617;DHT22;7908;51.688;7.130;2023-04-25T09:16:59;9.00;99.90
15617;DHT22;7908;51.688;7.130;2023-04-25T09:19:30;9.00;99.90
15617;DHT22;7908;51.688;7.130;2023-04-25T09:22:08;9.00;99.90
15617;DHT22;7908;51.688;7.130;2023-04-25T09:24:38;9.00;99.90
15617;DHT22;7908;51.688;7.130;2023-04-25T09:27:09;8.90;99.90
15617;DHT22;7908;51.688;7.130;2023-04-25T09:29:40;8.90;99.90
15617;DHT22;7908;51.688;7.130;2023-04-25T09:32:18;8.90;99.90
15617;DHT22;7908;51.688;7.130;2023-04-25T09:34:48;8.80;99.90
15617;DHT22;7908;51.688;7.130;2023-04-25T09:37:19;8.80;99.90
15617;DHT22;7908;51.688;7.130;2023-04-25T09:39:53;8.80;99.90
15617;DHT22;7908;51.688;7.130;2023-04-25T09:42:23;8.90;99.90
15617;DHT22;7908;51.688;7.130;2023-04-25T09:44:54;9.10;99.90
15617;DHT22;7908;51.688;7.130;2023-04-25T09:47:25;9.10;99.90
15617;DHT22;7908;51.688;7.130;2023-04-25T09:49:55;8.90;99.90
15617;DHT22;7908;51.688;7.130;2023-04-25T09:52:25;8.90;99.90
15617;DHT22;7908;51.688;7.130;2023-04-25T09:54:55;8.90;99.90
15617;DHT22;7908;51.688;7.130;2023-04-25T09:57:24;8.90;99.90
15617;DHT22;7908;51.688;7.130;2023-04-25T09:59:55;8.90;99.90
15617;DHT22;7908;51.688;7.130;2023-04-25T10:02:25;8.90;99.90
15617;DHT22;7908;51.688;7.130;2023-04-25T10:05:05;8.90;99.90
15617;DHT22;7908;51.688;7.130;2023-04-25T10:07:36;8.90;99.90
15617;DHT22;7908;51.688;7.130;2023-04-25T10:10:09;8.90;99.90
15617;DHT22;7908;51.688;7.130;2023-04-25T10:12:42;8.80;99.90
15617;DHT22;7908;51.688;7.130;2023-04-25T10:15:16;8.60;99.90
15617;DHT22;7908;51.688;7.130;2023-04-25T10:17:45;8.40;99.90
15617;DHT22;7908;51.688;7.130;2023-04-25T10:20:14;8.20;99.90
15617;DHT22;7908;51.688;7.130;2023-04-25T10:22:45;8.20;99.90
15617;DHT22;7908;51.688;7.130;2023-04-25T10:25:15;8.30;99.90
15617;DHT22;7908;51.688;7.130;2023-04-25T10:27:44;8.30;99.90
15617;DHT22;7908;51.688;7.130;2023-04-25T10:30:15;8.20;99.90
15617;DHT22;7908;51.688;7.130;2023-04-25T10:32:45;8.20;99.90
15617;DHT22;7908;51.688;7.130;2023-04-25T10:35:16;8.10;99.90
15617;DHT22;7908;51.688;7.130;2023-04-25T10:37:57;8.10;99.90
15617;DHT22;7908;51.688;7.130;2023-04-25T10:40:27;8.10;99.90
15617;DHT22;7908;51.688;7.130;2023-04-25T10:43:35;8.00;99.90
15617;DHT22;7908;51.688;7.130;2023-04-25T10:46:16;7.90;99.90
15617;DHT22;7908;51.688;7.130;2023-04-25T10:48:49;8.00;99.90
15617;DHT22;7908;51.688;7.130;2023-04-25T10:51:22;8.10;99.90
15617;DHT22;7908;51.688;7.130;2023-04-25T10:53:58;8.20;99.90
15617;DHT22;7908;51.688;7.130;2023-04-25T10:56:30;8.40;99.90
15617;DHT22;7908;51.688;7.130;2023-04-25T10:59:18;8.60;99.90
15617;DHT22;7908;51.688;7.130;2023-04-25T11:01:52;8.70;99.90
15617;DHT22;7908;51.688;7.130;2023-04-25T11:04:25;8.80;99.90
15617;DHT22;7908;51.688;7.130;2023-04-25T11:07:07;8.80;99.90
15617;DHT22;7908;51.688;7.130;2023-04-25T11:09:40;9.00;99.90
15617;DHT22;7908;51.688;7.130;2023-04-25T11:12:10;9.10;99.90
15617;DHT22;7908;51.688;7.130;2023-04-25T11:14:41;9.00;99.90
15617;DHT22;7908;51.688;7.130;2023-04-25T11:17:11;9.00;99.90
15617;DHT22;7908;51.688;7.130;2023-04-25T11:19:40;8.90;99.90
15617;DHT22;7908;51.688;7.130;2023-04-25T11:22:10;8.90;99.90
15617;DHT22;7908;51.688;7.130;2023-04-25T11:24:39;8.90;99.90
15617;DHT22;7908;51.688;7.130;2023-04-25T11:27:08;8.90;99.90
15617;DHT22;7908;51.688;7.130;2023-04-25T11:29:37;9.00;99.90
15617;DHT22;7908;51.688;7.130;2023-04-25T11:32:06;9.00;99.90
15617;DHT22;7908;51.688;7.130;2023-04-25T11:34:36;9.20;99.90
15617;DHT22;7908;51.688;7.130;2023-04-25T11:37:06;9.20;99.90
15617;DHT22;7908;51.688;7.130;2023-04-25T11:39:36;9.30;99.90
15617;DHT22;7908;51.688;7.130;2023-04-25T11:42:05;9.50;99.90
15617;DHT22;7908;51.688;7.130;2023-04-25T11:44:40;9.70;99.90
15617;DHT22;7908;51.688;7.130;2023-04-25T11:47:09;9.90;99.90
15617;DHT22;7908;51.688;7.130;2023-04-25T11:49:40;10.20;99.90
15617;DHT22;7908;51.688;7.130;2023-04-25T11:52:09;10.30;99.90
15617;DHT22;7908;51.688;7.130;2023-04-25T11:54:38;10.50;99.90
15617;DHT22;7908;51.688;7.130;2023-04-25T11:57:08;10.60;99.90
15617;DHT22;7908;51.688;7.130;2023-04-25T11:59:37;10.70;99.90
15617;DHT22;7908;51.688;7.130;2023-04-25T12:02:24;10.60;99.90
15617;DHT22;7908;51.688;7.130;2023-04-25T12:04:59;10.60;99.90
15617;DHT22;7908;51.688;7.130;2023-04-25T12:07:48;10.60;99.90
15617;DHT22;7908;51.688;7.130;2023-04-25T12:10:18;10.50;99.90
15617;DHT22;7908;51.688;7.130;2023-04-25T12:12:48;10.50;99.90
15617;DHT22;7908;51.688;7.130;2023-04-25T12:15:18;10.50;99.90
15617;DHT22;7908;51.688;7.130;2023-04-25T12:17:52;10.60;99.90
15617;DHT22;7908;51.688;7.130;2023-04-25T12:20:24;10.70;99.90
15617;DHT22;7908;51.688;7.130;2023-04-25T12:22:54;10.80;99.90
15617;DHT22;7908;51.688;7.130;2023-04-25T12:25:35;10.80;99.90
15617;DHT22;7908;51.688;7.130;2023-04-25T12:28:16;10.90;99.90
15617;DHT22;7908;51.688;7.130;2023-04-25T12:30:54;10.90;99.90
15617;DHT22;7908;51.688;7.130;2023-04-25T12:33:24;11.00;99.90
15617;DHT22;7908;51.688;7.130;2023-04-25T12:35:56;11.10;99.90
15617;DHT22;7908;51.688;7.130;2023-04-25T12:38:27;11.00;99.90
15617;DHT22;7908;51.688;7.130;2023-04-25T12:40:57;10.90;99.90
15617;DHT22;7908;51.688;7.130;2023-04-25T12:43:28;10.90;99.90
15617;DHT22;7908;51.688;7.130;2023-04-25T12:49:55;10.80;99.90
15617;DHT22;7908;51.688;7.130;2023-04-25T12:52:30;10.70;99.90
15617;DHT22;7908;51.688;7.130;2023-04-25T12:55:06;10.80;99.90
15617;DHT22;7908;51.688;7.130;2023-04-25T12:57:42;10.90;99.90
15617;DHT22;7908;51.688;7.130;2023-04-25T13:00:17;11.10;99.90
15617;DHT22;7908;51.688;7.130;2023-04-25T13:02:51;11.10;99.90
15617;DHT22;7908;51.688;7.130;2023-04-25T13:05:31;10.60;99.90
15617;DHT22;7908;51.688;7.130;2023-04-25T13:08:20;10.10;99.90
15617;DHT22;7908;51.688;7.130;2023-04-25T13:10:57;9.80;99.90
15617;DHT22;7908;51.688;7.130;2023-04-25T13:13:30;9.40;99.90
15617;DHT22;7908;51.688;7.130;2023-04-25T13:16:03;9.00;99.90
15617;DHT22;7908;51.688;7.130;2023-04-25T13:18:40;8.70;99.90
15617;DHT22;7908;51.688;7.130;2023-04-25T13:21:17;8.50;99.90
15617;DHT22;7908;51.688;7.130;2023-04-25T13:23:51;8.50;99.90
15617;DHT22;7908;51.688;7.130;2023-04-25T13:26:23;8.60;99.90
15617;DHT22;7908;51.688;7.130;2023-04-25T13:28:56;8.80;99.90
15617;DHT22;7908;51.688;7.130;2023-04-25T13:31:30;8.80;99.90
15617;DHT22;7908;51.688;7.130;2023-04-25T13:34:07;8.80;99.90
15617;DHT22;7908;51.688;7.130;2023-04-25T13:36:46;8.90;99.90
15617;DHT22;7908;51.688;7.130;2023-04-25T13:39:19;9.10;99.90
15617;DHT22;7908;51.688;7.130;2023-04-25T13:41:49;9.20;99.90
15617;DHT22;7908;51.688;7.130;2023-04-25T13:44:23;9.40;99.90
15617;DHT22;7908;51.688;7.130;2023-04-25T13:47:00;9.50;99.90
15617;DHT22;7908;51.688;7.130;2023-04-25T13:49:37;9.70;99.90
15617;DHT22;7908;51.688;7.130;2023-04-25T13:52:10;9.80;99.90
15617;DHT22;7908;51.688;7.130;2023-04-25T13:54:43;9.90;99.90
15617;DHT22;7908;51.688;7.130;2023-04-25T13:57:16;10.00;99.90
15617;DHT22;7908;51.688;7.130;2023-04-25T13:59:54;10.10;99.90
15617;DHT22;7908;51.688;7.130;2023-04-25T14:02:30;10.40;99.90
15617;DHT22;7908;51.688;7.130;2023-04-25T14:05:02;10.70;99.90
15617;DHT22;7908;51.688;7.130;2023-04-25T14:07:35;10.90;99.90
15617;DHT22;7908;51.688;7.130;2023-04-25T14:10:11;11.00;99.90
15617;DHT22;7908;51.688;7.130;2023-04-25T14:13:02;11.20;99.90
15617;DHT22;7908;51.688;7.130;2023-04-25T14:15:42;11.40;99.90
15617;DHT22;7908;51.688;7.130;2023-04-25T14:18:20;11.60;99.90
15617;DHT22;7908;51.688;7.130;2023-04-25T14:20:55;11.60;99.90
15617;DHT22;7908;51.688;7.130;2023-04-25T14:23:29;11.70;99.90
15617;DHT22;7908;51.688;7.130;2023-04-25T14:26:05;11.50;99.90
15617;DHT22;7908;51.688;7.130;2023-04-25T14:28:40;11.20;99.90
15617;DHT22;7908;51.688;7.130;2023-04-25T14:31:15;11.10;99.90
15617;DHT22;7908;51.688;7.130;2023-04-25T14:33:51;10.90;99.90
15617;DHT22;7908;51.688;7.130;2023-04-25T14:36:28;11.00;99.90
15617;DHT22;7908;51.688;7.130;2023-04-25T14:39:05;11.20;99.90
15617;DHT22;7908;51.688;7.130;2023-04-25T14:44:24;11.20;99.90
15617;DHT22;7908;51.688;7.130;2023-04-25T14:47:02;11.00;99.90
15617;DHT22;7908;51.688;7.130;2023-04-25T14:49:36;10.90;99.90
15617;DHT22;7908;51.688;7.130;2023-04-25T14:52:17;10.90;99.90
15617;DHT22;7908;51.688;7.130;2023-04-25T14:54:46;10.80;99.90
15617;DHT22;7908;51.688;7.130;2023-04-25T14:57:15;10.70;99.90
15617;DHT22;7908;51.688;7.130;2023-04-25T14:59:45;10.70;99.90
15617;DHT22;7908;51.688;7.130;2023-04-25T15:02:16;10.70;99.90
15617;DHT22;7908;51.688;7.130;2023-04-25T15:05:08;10.90;99.90
15617;DHT22;7908;51.688;7.130;2023-04-25T15:07:37;11.20;99.90
15617;DHT22;7908;51.688;7.130;2023-04-25T15:10:09;11.30;99.90
15617;DHT22;7908;51.688;7.130;2023-04-25T15:12:40;11.30;99.90
15617;DHT22;7908;51.688;7.130;2023-04-25T15:15:12;11.30;99.90
15617;DHT22;7908;51.688;7.130;2023-04-25T15:17:51;11.10;99.90
15617;DHT22;7908;51.688;7.130;2023-04-25T15:20:24;10.70;99.90
15617;DHT22;7908;51.688;7.130;2023-04-25T15:22:53;10.30;99.90
15617;DHT22;7908;51.688;7.130;2023-04-25T15:25:23;10.00;99.90
15617;DHT22;7908;51.688;7.130;2023-04-25T15:27:52;10.00;99.90
15617;DHT22;7908;51.688;7.130;2023-04-25T15:30:23;9.80;99.90
15617;DHT22;7908;51.688;7.130;2023-04-25T15:32:53;9.80;99.90
15617;DHT22;7908;51.688;7.130;2023-04-25T15:35:21;9.80;99.90
15617;DHT22;7908;51.688;7.130;2023-04-25T15:37:50;9.80;99.90
15617;DHT22;7908;51.688;7.130;2023-04-25T15:40:19;9.80;99.90
15617;DHT22;7908;51.688;7.130;2023-04-25T15:42:51;9.70;99.90
15617;DHT22;7908;51.688;7.130;2023-04-25T15:45:21;9.70;99.90
15617;DHT22;7908;51.688;7.130;2023-04-25T15:47:56;9.60;99.90
15617;DHT22;7908;51.688;7.130;2023-04-25T15:50:25;9.50;99.90
15617;DHT22;7908;51.688;7.130;2023-04-25T15:52:53;9.50;99.90
15617;DHT22;7908;51.688;7.130;2023-04-25T15:55:22;9.60;99.90
15617;DHT22;7908;51.688;7.130;2023-04-25T15:57:52;9.70;99.90
15617;DHT22;7908;51.688;7.130;2023-04-25T16:00:21;9.80;99.90
15617;DHT22;7908;51.688;7.130;2023-04-25T16:02:50;9.90;99.90
15617;DHT22;7908;51.688;7.130;2023-04-25T16:05:24;9.90;99.90
15617;DHT22;7908;51.688;7.130;2023-04-25T16:07:53;9.90;99.90
15617;DHT22;7908;51.688;7.130;2023-04-25T16:10:21;10.00;99.90
15617;DHT22;7908;51.688;7.130;2023-04-25T16:12:50;10.00;99.90
15617;DHT22;7908;51.688;7.130;2023-04-25T16:15:19;10.00;99.90
15617;DHT22;7908;51.688;7.130;2023-04-25T16:17:48;10.00;99.90
15617;DHT22;7908;51.688;7.130;2023-04-25T16:20:17;10.10;99.90
15617;DHT22;7908;51.688;7.130;2023-04-25T16:22:50;10.00;99.90
15617;DHT22;7908;51.688;7.130;2023-04-25T16:25:19;10.00;99.90
15617;DHT22;7908;51.688;7.130;2023-04-25T16:27:49;10.10;99.90
15617;DHT22;7908;51.688;7.130;2023-04-25T16:30:18;10.10;99.90